Westwood Rainier — C6SI3 — position and weather

sailwx.info

Track history (hours):
 
Tides and Currents Weather Stations Pressure Air Temp Water Temp Dewpoint Dewpoint Depression Visibility Wind Speed Wind Dir Waves Ship Positions

Westwood Rainier

Last reported at 2014-Jul-23 06:33 UTC. Time now 2014-Jul-23 08:10 UTC.
Position N 35°02' E 138°30'.

Type: Cargo ship. MMSI: 311348993.

Date/timePositionNaut miles runAvg speedWind from/ knotsBaromVisibWave heightAir tempDewpointWater temp
2014-Jul-23 06:33N 35°02' E 138°30'7 7.2
2014-Jul-23 05:31N 34°55' E 138°35'193 5.5
2014-Jul-21 18:32N 33°50' E 134°55'1515.0
2014-Jul-21 17:33N 34°04' E 134°56'1414.2
2014-Jul-21 16:34N 34°19' E 134°59'1515.4
2014-Jul-21 15:33N 34°31' E 135°10'1313.5
2014-Jul-21 14:33N 34°37' E 135°24'0 0.4
2014-Jul-21 13:30N 34°38' E 135°25'0 0.0
2014-Jul-21 12:30N 34°38' E 135°25'0 0.0
2014-Jul-21 11:30N 34°38' E 135°25'0 0.0
2014-Jul-21 10:18N 34°38' E 135°25'0 0.0
2014-Jul-21 09:30N 34°38' E 135°25'0 0.0
2014-Jul-21 08:18N 34°38' E 135°25'0 0.0
2014-Jul-21 07:24N 34°38' E 135°25'0 0.0
2014-Jul-21 06:30N 34°38' E 135°25'0 0.0
2014-Jul-21 05:12N 34°38' E 135°25'0 0.0
2014-Jul-21 04:24N 34°38' E 135°25'0 0.0
2014-Jul-21 03:30N 34°38' E 135°25'0 0.0
2014-Jul-21 02:30N 34°38' E 135°25'0 0.0
2014-Jul-21 01:30N 34°38' E 135°25'0 0.0
2014-Jul-21 00:24N 34°38' E 135°25'0 0.0
2014-Jul-20 23:30N 34°38' E 135°25'0 0.0
2014-Jul-20 22:30N 34°38' E 135°25'1 1.1
2014-Jul-20 21:33N 34°38' E 135°24'10 9.9
2014-Jul-20 20:33N 34°32' E 135°14'1514.8
2014-Jul-20 19:33N 34°21' E 135°02'1313.3
2014-Jul-20 18:33N 34°08' E 135°01'1 1.4
2014-Jul-20 17:33N 34°06' E 135°01'3 2.7
2014-Jul-20 16:34N 34°04' E 134°60'296 7.6
2014-Jul-19 01:33N 35°04' E 129°07'2 2.2
2014-Jul-19 00:28N 35°06' E 129°06'0 0.0
2014-Jul-18 23:28N 35°06' E 129°06'0 0.0
2014-Jul-18 22:13N 35°06' E 129°06'0 0.0
2014-Jul-18 21:31N 35°06' E 129°06'0 0.0
2014-Jul-18 20:31N 35°06' E 129°06'0 0.0
2014-Jul-18 19:19N 35°06' E 129°06'0 0.0
2014-Jul-18 18:31N 35°06' E 129°06'0 0.0
2014-Jul-18 17:25N 35°06' E 129°06'0 0.0
2014-Jul-18 16:19N 35°06' E 129°06'0 0.0
2014-Jul-18 15:28N 35°06' E 129°06'0 0.0
2014-Jul-18 14:31N 35°06' E 129°06'0 0.0
2014-Jul-18 13:31N 35°06' E 129°06'0 0.0
2014-Jul-18 12:33N 35°06' E 129°06'9 6.5
2014-Jul-18 11:10N 35°02' E 129°16'  
2014-Jul-16 07:03N 34°38' E 139°27'812.9
2014-Jul-16 06:25N 34°45' E 139°32'1113.4
2014-Jul-16 05:33N 34°55' E 139°39'1414.3
2014-Jul-16 04:33N 35°08' E 139°45'1111.4
2014-Jul-16 03:34N 35°20' E 139°43'9 9.2
2014-Jul-16 02:34N 35°28' E 139°40'0 0.4
2014-Jul-16 01:30N 35°28' E 139°39'0 0.0
2014-Jul-16 00:33N 35°28' E 139°39'0 0.0
2014-Jul-15 23:33N 35°28' E 139°39'0 0.0
2014-Jul-15 22:33N 35°28' E 139°39'0 0.0
2014-Jul-15 21:30N 35°28' E 139°39'0 0.0
2014-Jul-15 20:33N 35°28' E 139°39'0 0.0
2014-Jul-15 19:33N 35°28' E 139°39'0 0.0
2014-Jul-15 18:33N 35°28' E 139°39'0 0.0
2014-Jul-15 17:33N 35°28' E 139°39'0 0.0
2014-Jul-15 16:30N 35°28' E 139°39'0 0.0
2014-Jul-15 15:33N 35°28' E 139°39'0 0.0
2014-Jul-15 14:33N 35°28' E 139°39'0 0.0
2014-Jul-15 13:33N 35°28' E 139°39'0 0.0
2014-Jul-15 12:33N 35°28' E 139°39'0 0.0
2014-Jul-15 11:33N 35°28' E 139°39'0 0.0
2014-Jul-15 10:33N 35°28' E 139°39'0 0.0
2014-Jul-15 09:33N 35°28' E 139°39'0 0.0
2014-Jul-15 08:33N 35°28' E 139°39'0 0.0
2014-Jul-15 07:33N 35°28' E 139°39'0 0.0
2014-Jul-15 06:33N 35°28' E 139°39'0 0.0
2014-Jul-15 05:33N 35°28' E 139°39'0 0.0
2014-Jul-15 04:33N 35°28' E 139°39'0 0.0
2014-Jul-15 03:33N 35°28' E 139°39'0 0.0
2014-Jul-15 02:33N 35°28' E 139°39'0 0.0
2014-Jul-15 01:33N 35°28' E 139°39'0 0.0
2014-Jul-15 00:33N 35°28' E 139°39'0 0.0
2014-Jul-14 23:33N 35°28' E 139°39'4 4.2
2014-Jul-14 22:33N 35°26' E 139°44'1111.3
2014-Jul-14 21:33N 35°37' E 139°49'2 1.4
2014-Jul-14 20:24N 35°37' E 139°47'0 0.0
2014-Jul-14 19:33N 35°37' E 139°47'0 0.0
2014-Jul-14 18:33N 35°37' E 139°47'0 0.0
2014-Jul-14 17:33N 35°37' E 139°47'0 0.0
2014-Jul-14 16:30N 35°37' E 139°47'0 0.0
2014-Jul-14 15:30N 35°37' E 139°47'0 0.0
2014-Jul-14 14:33N 35°37' E 139°47'0 0.0
2014-Jul-14 13:33N 35°37' E 139°47'0 0.0
2014-Jul-14 12:30N 35°37' E 139°47'0 0.0
2014-Jul-14 11:33N 35°37' E 139°47'0 0.0
2014-Jul-14 09:33N 35°37' E 139°47'0 0.0
2014-Jul-14 08:33N 35°37' E 139°47'0 0.0
2014-Jul-14 07:33N 35°37' E 139°47'0 0.0
2014-Jul-14 06:30N 35°37' E 139°47'0 0.0
2014-Jul-14 05:30N 35°37' E 139°47'0 0.0
2014-Jul-14 04:33N 35°37' E 139°47'0 0.0
2014-Jul-14 03:30N 35°37' E 139°47'0 0.0
2014-Jul-14 02:27N 35°37' E 139°47'0 0.0
2014-Jul-14 01:33N 35°37' E 139°47'0 0.0
2014-Jul-14 00:30N 35°37' E 139°47'0 0.0
2014-Jul-13 23:33N 35°37' E 139°47'0 0.0
2014-Jul-13 21:18N 35°37' E 139°47'0 0.0
2014-Jul-13 20:30N 35°37' E 139°47'0 0.0
2014-Jul-13 19:33N 35°37' E 139°47'0 0.0
2014-Jul-13 18:30N 35°37' E 139°47'0 0.0
2014-Jul-13 17:30N 35°37' E 139°47'0 0.0
2014-Jul-13 16:29N 35°37' E 139°47'0 0.0
2014-Jul-13 15:29N 35°37' E 139°47'0 0.0
2014-Jul-13 14:17N 35°37' E 139°47'0 0.0
2014-Jul-13 13:32N 35°37' E 139°47'0 0.0
2014-Jul-13 12:32N 35°37' E 139°47'0 0.0
2014-Jul-13 11:32N 35°37' E 139°47'0 0.0
2014-Jul-13 10:32N 35°37' E 139°47'0 0.0
2014-Jul-13 09:32N 35°37' E 139°47'0 0.0
2014-Jul-13 08:32N 35°37' E 139°47'0 0.0
2014-Jul-13 07:29N 35°37' E 139°47'  
Track history (hours):
 
Tides and Currents Weather Stations Pressure Air Temp Water Temp Dewpoint Dewpoint Depression Visibility Wind Speed Wind Dir Waves Ship Positions

Westwood Rainier

Last reported at 2014-Jul-23 06:33 UTC. Time now 2014-Jul-23 08:10 UTC.
Position N 35°02' E 138°30'.

Type: Cargo ship. MMSI: 311348993.

Date/timePositionNaut miles runAvg speedWind from/ knotsBaromVisibWave heightAir tempDewpointWater temp
2014-Jul-23 06:33N 35°02' E 138°30'7 7.2
2014-Jul-23 05:31N 34°55' E 138°35'193 5.5
2014-Jul-21 18:32N 33°50' E 134°55'1515.0
2014-Jul-21 17:33N 34°04' E 134°56'1414.2
2014-Jul-21 16:34N 34°19' E 134°59'1515.4
2014-Jul-21 15:33N 34°31' E 135°10'1313.5
2014-Jul-21 14:33N 34°37' E 135°24'0 0.4
2014-Jul-21 13:30N 34°38' E 135°25'0 0.0
2014-Jul-21 12:30N 34°38' E 135°25'0 0.0
2014-Jul-21 11:30N 34°38' E 135°25'0 0.0
2014-Jul-21 10:18N 34°38' E 135°25'0 0.0
2014-Jul-21 09:30N 34°38' E 135°25'0 0.0
2014-Jul-21 08:18N 34°38' E 135°25'0 0.0
2014-Jul-21 07:24N 34°38' E 135°25'0 0.0
2014-Jul-21 06:30N 34°38' E 135°25'0 0.0
2014-Jul-21 05:12N 34°38' E 135°25'0 0.0
2014-Jul-21 04:24N 34°38' E 135°25'0 0.0
2014-Jul-21 03:30N 34°38' E 135°25'0 0.0
2014-Jul-21 02:30N 34°38' E 135°25'0 0.0
2014-Jul-21 01:30N 34°38' E 135°25'0 0.0
2014-Jul-21 00:24N 34°38' E 135°25'0 0.0
2014-Jul-20 23:30N 34°38' E 135°25'0 0.0
2014-Jul-20 22:30N 34°38' E 135°25'1 1.1
2014-Jul-20 21:33N 34°38' E 135°24'10 9.9
2014-Jul-20 20:33N 34°32' E 135°14'1514.8
2014-Jul-20 19:33N 34°21' E 135°02'1313.3
2014-Jul-20 18:33N 34°08' E 135°01'1 1.4
2014-Jul-20 17:33N 34°06' E 135°01'3 2.7
2014-Jul-20 16:34N 34°04' E 134°60'296 7.6
2014-Jul-19 01:33N 35°04' E 129°07'2 2.2
2014-Jul-19 00:28N 35°06' E 129°06'0 0.0
2014-Jul-18 23:28N 35°06' E 129°06'0 0.0
2014-Jul-18 22:13N 35°06' E 129°06'0 0.0
2014-Jul-18 21:31N 35°06' E 129°06'0 0.0
2014-Jul-18 20:31N 35°06' E 129°06'0 0.0
2014-Jul-18 19:19N 35°06' E 129°06'0 0.0
2014-Jul-18 18:31N 35°06' E 129°06'0 0.0
2014-Jul-18 17:25N 35°06' E 129°06'0 0.0
2014-Jul-18 16:19N 35°06' E 129°06'0 0.0
2014-Jul-18 15:28N 35°06' E 129°06'0 0.0
2014-Jul-18 14:31N 35°06' E 129°06'0 0.0
2014-Jul-18 13:31N 35°06' E 129°06'0 0.0
2014-Jul-18 12:33N 35°06' E 129°06'9 6.5
2014-Jul-18 11:10N 35°02' E 129°16'  
2014-Jul-16 07:03N 34°38' E 139°27'812.9
2014-Jul-16 06:25N 34°45' E 139°32'1113.4
2014-Jul-16 05:33N 34°55' E 139°39'1414.3
2014-Jul-16 04:33N 35°08' E 139°45'1111.4
2014-Jul-16 03:34N 35°20' E 139°43'9 9.2
2014-Jul-16 02:34N 35°28' E 139°40'0 0.4
2014-Jul-16 01:30N 35°28' E 139°39'0 0.0
2014-Jul-16 00:33N 35°28' E 139°39'0 0.0
2014-Jul-15 23:33N 35°28' E 139°39'0 0.0
2014-Jul-15 22:33N 35°28' E 139°39'0 0.0
2014-Jul-15 21:30N 35°28' E 139°39'0 0.0
2014-Jul-15 20:33N 35°28' E 139°39'0 0.0
2014-Jul-15 19:33N 35°28' E 139°39'0 0.0
2014-Jul-15 18:33N 35°28' E 139°39'0 0.0
2014-Jul-15 17:33N 35°28' E 139°39'0 0.0
2014-Jul-15 16:30N 35°28' E 139°39'0 0.0
2014-Jul-15 15:33N 35°28' E 139°39'0 0.0
2014-Jul-15 14:33N 35°28' E 139°39'0 0.0
2014-Jul-15 13:33N 35°28' E 139°39'0 0.0
2014-Jul-15 12:33N 35°28' E 139°39'0 0.0
2014-Jul-15 11:33N 35°28' E 139°39'0 0.0
2014-Jul-15 10:33N 35°28' E 139°39'0 0.0
2014-Jul-15 09:33N 35°28' E 139°39'0 0.0
2014-Jul-15 08:33N 35°28' E 139°39'0 0.0
2014-Jul-15 07:33N 35°28' E 139°39'0 0.0
2014-Jul-15 06:33N 35°28' E 139°39'0 0.0
2014-Jul-15 05:33N 35°28' E 139°39'0 0.0
2014-Jul-15 04:33N 35°28' E 139°39'0 0.0
2014-Jul-15 03:33N 35°28' E 139°39'0 0.0
2014-Jul-15 02:33N 35°28' E 139°39'0 0.0
2014-Jul-15 01:33N 35°28' E 139°39'0 0.0
2014-Jul-15 00:33N 35°28' E 139°39'0 0.0
2014-Jul-14 23:33N 35°28' E 139°39'4 4.2
2014-Jul-14 22:33N 35°26' E 139°44'1111.3
2014-Jul-14 21:33N 35°37' E 139°49'2 1.4
2014-Jul-14 20:24N 35°37' E 139°47'0 0.0
2014-Jul-14 19:33N 35°37' E 139°47'0 0.0
2014-Jul-14 18:33N 35°37' E 139°47'0 0.0
2014-Jul-14 17:33N 35°37' E 139°47'0 0.0
2014-Jul-14 16:30N 35°37' E 139°47'0 0.0
2014-Jul-14 15:30N 35°37' E 139°47'0 0.0
2014-Jul-14 14:33N 35°37' E 139°47'0 0.0
2014-Jul-14 13:33N 35°37' E 139°47'0 0.0
2014-Jul-14 12:30N 35°37' E 139°47'0 0.0
2014-Jul-14 11:33N 35°37' E 139°47'0 0.0
2014-Jul-14 09:33N 35°37' E 139°47'0 0.0
2014-Jul-14 08:33N 35°37' E 139°47'0 0.0
2014-Jul-14 07:33N 35°37' E 139°47'0 0.0
2014-Jul-14 06:30N 35°37' E 139°47'0 0.0
2014-Jul-14 05:30N 35°37' E 139°47'0 0.0
2014-Jul-14 04:33N 35°37' E 139°47'0 0.0
2014-Jul-14 03:30N 35°37' E 139°47'0 0.0
2014-Jul-14 02:27N 35°37' E 139°47'0 0.0
2014-Jul-14 01:33N 35°37' E 139°47'0 0.0
2014-Jul-14 00:30N 35°37' E 139°47'0 0.0
2014-Jul-13 23:33N 35°37' E 139°47'0 0.0
2014-Jul-13 21:18N 35°37' E 139°47'0 0.0
2014-Jul-13 20:30N 35°37' E 139°47'0 0.0
2014-Jul-13 19:33N 35°37' E 139°47'0 0.0
2014-Jul-13 18:30N 35°37' E 139°47'0 0.0
2014-Jul-13 17:30N 35°37' E 139°47'0 0.0
2014-Jul-13 16:29N 35°37' E 139°47'0 0.0
2014-Jul-13 15:29N 35°37' E 139°47'0 0.0
2014-Jul-13 14:17N 35°37' E 139°47'0 0.0
2014-Jul-13 13:32N 35°37' E 139°47'0 0.0
2014-Jul-13 12:32N 35°37' E 139°47'0 0.0
2014-Jul-13 11:32N 35°37' E 139°47'0 0.0
2014-Jul-13 10:32N 35°37' E 139°47'0 0.0
2014-Jul-13 09:32N 35°37' E 139°47'0 0.0
2014-Jul-13 08:32N 35°37' E 139°47'0 0.0
2014-Jul-13 07:29N 35°37' E 139°47'  

Dump ship's entire track history